Terminal Aerodrome Forecast
Issued by NWS

Home | Current Version | Previous Version | Text Only | Print | Product List | Glossary On
Versions: 1 2 3 4 5 6 7 8 9 10 11 12 13 14 15 16 17 18 19 20
000
FTUS43 KDLH 201143
TAFHIB
TAF
KHIB 201143Z 2012/2112 15004KT P6SM BKN150
     FM201800 17007KT P6SM BKN150 WS020/23040KT
     FM202100 20008G14KT P6SM SCT150
     FM210300 27010G18KT P6SM SCT015 BKN020
     FM210900 30018G27KT 5SM -SHSN BKN015 OVC030=

USA.gov is the U.S. government's official web portal to all federal, state and local government web resources and services.